sensor_id;sensor_type;location;lat;lon;timestamp;temperature;humidity
7708;DHT22;3896;48.758;8.888;2022-07-06T00:02:14;17.10;72.90
7708;DHT22;3896;48.758;8.888;2022-07-06T00:04:40;17.00;73.00
7708;DHT22;3896;48.758;8.888;2022-07-06T00:07:06;17.10;73.20
7708;DHT22;3896;48.758;8.888;2022-07-06T00:09:32;17.00;73.30
7708;DHT22;3896;48.758;8.888;2022-07-06T00:11:58;17.00;73.50
7708;DHT22;3896;48.758;8.888;2022-07-06T00:14:24;17.00;73.70
7708;DHT22;3896;48.758;8.888;2022-07-06T00:16:49;16.90;73.90
7708;DHT22;3896;48.758;8.888;2022-07-06T00:19:15;16.90;74.10
7708;DHT22;3896;48.758;8.888;2022-07-06T00:21:41;16.90;74.20
7708;DHT22;3896;48.758;8.888;2022-07-06T00:24:07;16.80;74.60
7708;DHT22;3896;48.758;8.888;2022-07-06T00:26:32;16.80;74.70
7708;DHT22;3896;48.758;8.888;2022-07-06T00:28:58;16.80;75.00
7708;DHT22;3896;48.758;8.888;2022-07-06T00:31:24;16.80;74.90
7708;DHT22;3896;48.758;8.888;2022-07-06T00:33:49;16.70;75.00
7708;DHT22;3896;48.758;8.888;2022-07-06T00:36:15;16.70;75.10
7708;DHT22;3896;48.758;8.888;2022-07-06T00:38:41;16.70;75.50
7708;DHT22;3896;48.758;8.888;2022-07-06T00:41:07;16.60;75.70
7708;DHT22;3896;48.758;8.888;2022-07-06T00:46:14;16.50;75.40
7708;DHT22;3896;48.758;8.888;2022-07-06T00:48:40;16.50;76.20
7708;DHT22;3896;48.758;8.888;2022-07-06T00:51:05;16.50;76.40
7708;DHT22;3896;48.758;8.888;2022-07-06T00:53:31;16.50;76.60
7708;DHT22;3896;48.758;8.888;2022-07-06T00:55:57;16.40;76.50
7708;DHT22;3896;48.758;8.888;2022-07-06T00:58:22;16.40;76.90
7708;DHT22;3896;48.758;8.888;2022-07-06T01:00:48;16.40;77.10
7708;DHT22;3896;48.758;8.888;2022-07-06T01:03:14;16.30;77.20
7708;DHT22;3896;48.758;8.888;2022-07-06T01:05:39;16.30;77.50
7708;DHT22;3896;48.758;8.888;2022-07-06T01:08:05;16.20;77.60
7708;DHT22;3896;48.758;8.888;2022-07-06T01:10:31;16.20;77.80
7708;DHT22;3896;48.758;8.888;2022-07-06T01:12:57;16.20;77.80
7708;DHT22;3896;48.758;8.888;2022-07-06T01:15:24;16.20;78.00
7708;DHT22;3896;48.758;8.888;2022-07-06T01:17:51;16.10;78.00
7708;DHT22;3896;48.758;8.888;2022-07-06T01:22:44;16.10;78.10
7708;DHT22;3896;48.758;8.888;2022-07-06T01:25:10;16.10;78.10
7708;DHT22;3896;48.758;8.888;2022-07-06T01:27:38;16.00;78.40
7708;DHT22;3896;48.758;8.888;2022-07-06T01:30:22;16.00;78.40
7708;DHT22;3896;48.758;8.888;2022-07-06T01:32:48;15.90;77.80
7708;DHT22;3896;48.758;8.888;2022-07-06T01:35:14;15.90;78.30
7708;DHT22;3896;48.758;8.888;2022-07-06T01:37:41;15.90;78.60
7708;DHT22;3896;48.758;8.888;2022-07-06T01:40:09;15.90;78.50
7708;DHT22;3896;48.758;8.888;2022-07-06T01:42:35;15.90;78.40
7708;DHT22;3896;48.758;8.888;2022-07-06T01:45:02;15.90;78.50
7708;DHT22;3896;48.758;8.888;2022-07-06T01:47:28;15.80;78.50
7708;DHT22;3896;48.758;8.888;2022-07-06T01:49:54;15.80;78.70
7708;DHT22;3896;48.758;8.888;2022-07-06T01:52:19;15.80;78.80
7708;DHT22;3896;48.758;8.888;2022-07-06T01:54:45;15.80;78.80
7708;DHT22;3896;48.758;8.888;2022-07-06T01:57:11;15.70;79.10
7708;DHT22;3896;48.758;8.888;2022-07-06T01:59:36;15.70;79.10
7708;DHT22;3896;48.758;8.888;2022-07-06T02:02:02;15.70;79.20
7708;DHT22;3896;48.758;8.888;2022-07-06T02:04:28;15.70;79.30
7708;DHT22;3896;48.758;8.888;2022-07-06T02:06:53;15.60;79.40
7708;DHT22;3896;48.758;8.888;2022-07-06T02:09:19;15.60;79.70
7708;DHT22;3896;48.758;8.888;2022-07-06T02:11:45;15.60;80.20
7708;DHT22;3896;48.758;8.888;2022-07-06T02:14:10;15.50;80.20
7708;DHT22;3896;48.758;8.888;2022-07-06T02:16:36;15.50;80.30
7708;DHT22;3896;48.758;8.888;2022-07-06T02:19:02;15.50;80.60
7708;DHT22;3896;48.758;8.888;2022-07-06T02:21:28;15.50;80.80
7708;DHT22;3896;48.758;8.888;2022-07-06T02:23:53;15.40;80.80
7708;DHT22;3896;48.758;8.888;2022-07-06T02:26:19;15.40;81.00
7708;DHT22;3896;48.758;8.888;2022-07-06T02:28:44;15.40;80.80
7708;DHT22;3896;48.758;8.888;2022-07-06T02:31:13;15.30;80.30
7708;DHT22;3896;48.758;8.888;2022-07-06T02:33:39;15.30;80.00
7708;DHT22;3896;48.758;8.888;2022-07-06T02:36:05;15.30;80.20
7708;DHT22;3896;48.758;8.888;2022-07-06T02:38:30;15.30;80.50
7708;DHT22;3896;48.758;8.888;2022-07-06T02:40:56;15.30;81.00
7708;DHT22;3896;48.758;8.888;2022-07-06T02:43:22;15.30;81.10
7708;DHT22;3896;48.758;8.888;2022-07-06T02:45:47;15.30;81.20
7708;DHT22;3896;48.758;8.888;2022-07-06T02:48:13;15.30;81.40
7708;DHT22;3896;48.758;8.888;2022-07-06T02:50:39;15.30;81.60
7708;DHT22;3896;48.758;8.888;2022-07-06T02:53:04;15.30;81.60
7708;DHT22;3896;48.758;8.888;2022-07-06T02:55:30;15.20;81.50
7708;DHT22;3896;48.758;8.888;2022-07-06T02:57:56;15.20;82.10
7708;DHT22;3896;48.758;8.888;2022-07-06T03:00:21;15.20;81.40
7708;DHT22;3896;48.758;8.888;2022-07-06T03:02:47;15.20;81.50
7708;DHT22;3896;48.758;8.888;2022-07-06T03:05:12;15.20;81.40
7708;DHT22;3896;48.758;8.888;2022-07-06T03:07:38;15.20;81.50
7708;DHT22;3896;48.758;8.888;2022-07-06T03:10:04;15.20;81.60
7708;DHT22;3896;48.758;8.888;2022-07-06T03:12:30;15.20;82.20
7708;DHT22;3896;48.758;8.888;2022-07-06T03:14:55;15.10;82.30
7708;DHT22;3896;48.758;8.888;2022-07-06T03:17:21;15.10;83.00
7708;DHT22;3896;48.758;8.888;2022-07-06T03:19:47;15.10;83.50
7708;DHT22;3896;48.758;8.888;2022-07-06T03:22:13;15.10;84.40
7708;DHT22;3896;48.758;8.888;2022-07-06T03:24:39;15.10;84.90
7708;DHT22;3896;48.758;8.888;2022-07-06T03:27:05;15.00;85.30
7708;DHT22;3896;48.758;8.888;2022-07-06T03:29:31;15.00;85.20
7708;DHT22;3896;48.758;8.888;2022-07-06T03:31:57;15.00;85.80
7708;DHT22;3896;48.758;8.888;2022-07-06T03:34:22;14.90;86.30
7708;DHT22;3896;48.758;8.888;2022-07-06T03:36:48;14.90;86.10
7708;DHT22;3896;48.758;8.888;2022-07-06T03:39:13;14.90;86.90
7708;DHT22;3896;48.758;8.888;2022-07-06T03:41:39;14.90;86.90
7708;DHT22;3896;48.758;8.888;2022-07-06T03:44:05;14.90;87.10
7708;DHT22;3896;48.758;8.888;2022-07-06T03:46:30;14.90;87.10
7708;DHT22;3896;48.758;8.888;2022-07-06T03:48:56;14.90;87.30
7708;DHT22;3896;48.758;8.888;2022-07-06T03:51:21;14.80;87.50
7708;DHT22;3896;48.758;8.888;2022-07-06T03:53:47;14.80;87.30
7708;DHT22;3896;48.758;8.888;2022-07-06T03:56:13;14.80;87.70
7708;DHT22;3896;48.758;8.888;2022-07-06T03:58:57;14.80;87.60
7708;DHT22;3896;48.758;8.888;2022-07-06T04:01:24;14.80;87.70
7708;DHT22;3896;48.758;8.888;2022-07-06T04:03:49;14.80;87.80
7708;DHT22;3896;48.758;8.888;2022-07-06T04:06:15;14.80;88.20
7708;DHT22;3896;48.758;8.888;2022-07-06T04:08:41;14.80;88.60
7708;DHT22;3896;48.758;8.888;2022-07-06T04:11:06;14.70;89.10
7708;DHT22;3896;48.758;8.888;2022-07-06T04:13:32;14.70;89.40
7708;DHT22;3896;48.758;8.888;2022-07-06T04:15:58;14.70;89.10
7708;DHT22;3896;48.758;8.888;2022-07-06T04:18:24;14.70;89.10
7708;DHT22;3896;48.758;8.888;2022-07-06T04:20:50;14.70;89.10
7708;DHT22;3896;48.758;8.888;2022-07-06T04:23:15;14.70;89.70
7708;DHT22;3896;48.758;8.888;2022-07-06T04:25:41;14.70;89.80
7708;DHT22;3896;48.758;8.888;2022-07-06T04:28:07;14.70;90.10
7708;DHT22;3896;48.758;8.888;2022-07-06T04:30:33;14.70;90.30
7708;DHT22;3896;48.758;8.888;2022-07-06T04:32:59;14.80;90.30
7708;DHT22;3896;48.758;8.888;2022-07-06T04:35:25;14.80;90.40
7708;DHT22;3896;48.758;8.888;2022-07-06T04:37:50;14.80;90.70
7708;DHT22;3896;48.758;8.888;2022-07-06T04:40:16;14.80;91.00
7708;DHT22;3896;48.758;8.888;2022-07-06T04:42:42;14.80;91.30
7708;DHT22;3896;48.758;8.888;2022-07-06T04:45:08;14.80;91.50
7708;DHT22;3896;48.758;8.888;2022-07-06T04:47:34;14.80;92.00
7708;DHT22;3896;48.758;8.888;2022-07-06T04:50:01;14.90;92.20
7708;DHT22;3896;48.758;8.888;2022-07-06T04:52:26;14.90;92.10
7708;DHT22;3896;48.758;8.888;2022-07-06T04:54:54;14.90;92.00
7708;DHT22;3896;48.758;8.888;2022-07-06T04:57:19;14.90;92.10
7708;DHT22;3896;48.758;8.888;2022-07-06T04:59:45;14.90;92.20
7708;DHT22;3896;48.758;8.888;2022-07-06T05:02:11;14.90;92.20
7708;DHT22;3896;48.758;8.888;2022-07-06T05:04:36;15.00;92.10
7708;DHT22;3896;48.758;8.888;2022-07-06T05:07:02;15.00;92.30
7708;DHT22;3896;48.758;8.888;2022-07-06T05:09:28;15.00;92.50
7708;DHT22;3896;48.758;8.888;2022-07-06T05:11:53;15.10;92.70
7708;DHT22;3896;48.758;8.888;2022-07-06T05:14:19;15.10;92.90
7708;DHT22;3896;48.758;8.888;2022-07-06T05:16:45;15.10;92.90
7708;DHT22;3896;48.758;8.888;2022-07-06T05:19:10;15.10;93.00
7708;DHT22;3896;48.758;8.888;2022-07-06T05:21:36;15.20;93.40
7708;DHT22;3896;48.758;8.888;2022-07-06T05:24:01;15.20;93.30
7708;DHT22;3896;48.758;8.888;2022-07-06T05:26:27;15.20;93.40
7708;DHT22;3896;48.758;8.888;2022-07-06T05:28:53;15.20;93.80
7708;DHT22;3896;48.758;8.888;2022-07-06T05:31:18;15.30;93.40
7708;DHT22;3896;48.758;8.888;2022-07-06T05:33:44;15.30;93.40
7708;DHT22;3896;48.758;8.888;2022-07-06T05:36:10;15.30;93.90
7708;DHT22;3896;48.758;8.888;2022-07-06T05:38:35;15.40;94.20
7708;DHT22;3896;48.758;8.888;2022-07-06T05:41:01;15.40;94.50
7708;DHT22;3896;48.758;8.888;2022-07-06T05:43:26;15.50;94.30
7708;DHT22;3896;48.758;8.888;2022-07-06T05:45:52;15.50;94.30
7708;DHT22;3896;48.758;8.888;2022-07-06T05:48:17;15.50;94.40
7708;DHT22;3896;48.758;8.888;2022-07-06T05:51:01;15.60;94.80
7708;DHT22;3896;48.758;8.888;2022-07-06T05:53:27;15.60;94.60
7708;DHT22;3896;48.758;8.888;2022-07-06T05:55:53;15.70;94.70
7708;DHT22;3896;48.758;8.888;2022-07-06T05:58:18;15.70;95.00
7708;DHT22;3896;48.758;8.888;2022-07-06T06:00:44;15.80;94.90
7708;DHT22;3896;48.758;8.888;2022-07-06T06:03:09;15.80;95.10
7708;DHT22;3896;48.758;8.888;2022-07-06T06:05:35;15.90;95.10
7708;DHT22;3896;48.758;8.888;2022-07-06T06:08:01;15.90;94.90
7708;DHT22;3896;48.758;8.888;2022-07-06T06:10:27;16.00;95.20
7708;DHT22;3896;48.758;8.888;2022-07-06T06:12:53;16.10;95.00
7708;DHT22;3896;48.758;8.888;2022-07-06T06:15:18;16.10;94.20
7708;DHT22;3896;48.758;8.888;2022-07-06T06:17:44;16.20;94.40
7708;DHT22;3896;48.758;8.888;2022-07-06T06:20:12;16.20;94.30
7708;DHT22;3896;48.758;8.888;2022-07-06T06:22:52;16.40;95.00
7708;DHT22;3896;48.758;8.888;2022-07-06T06:25:20;16.40;94.10
7708;DHT22;3896;48.758;8.888;2022-07-06T06:27:46;16.50;93.70
7708;DHT22;3896;48.758;8.888;2022-07-06T06:30:13;16.60;93.00
7708;DHT22;3896;48.758;8.888;2022-07-06T06:32:39;16.60;93.10
7708;DHT22;3896;48.758;8.888;2022-07-06T06:35:05;16.70;93.00
7708;DHT22;3896;48.758;8.888;2022-07-06T06:37:32;16.80;92.80
7708;DHT22;3896;48.758;8.888;2022-07-06T06:39:58;16.80;93.10
7708;DHT22;3896;48.758;8.888;2022-07-06T06:42:23;16.90;92.80
7708;DHT22;3896;48.758;8.888;2022-07-06T06:44:49;17.00;92.50
7708;DHT22;3896;48.758;8.888;2022-07-06T06:47:14;17.10;92.50
7708;DHT22;3896;48.758;8.888;2022-07-06T06:49:40;17.20;92.40
7708;DHT22;3896;48.758;8.888;2022-07-06T06:52:06;17.30;91.70
7708;DHT22;3896;48.758;8.888;2022-07-06T06:54:31;17.40;91.50
7708;DHT22;3896;48.758;8.888;2022-07-06T06:56:57;17.50;90.80
7708;DHT22;3896;48.758;8.888;2022-07-06T06:59:23;17.50;90.60
7708;DHT22;3896;48.758;8.888;2022-07-06T07:01:49;17.60;89.60
7708;DHT22;3896;48.758;8.888;2022-07-06T07:04:14;17.70;89.70
7708;DHT22;3896;48.758;8.888;2022-07-06T07:06:40;17.80;88.90
7708;DHT22;3896;48.758;8.888;2022-07-06T07:09:06;17.90;88.90
7708;DHT22;3896;48.758;8.888;2022-07-06T07:11:31;18.00;89.90
7708;DHT22;3896;48.758;8.888;2022-07-06T07:13:57;18.10;88.50
7708;DHT22;3896;48.758;8.888;2022-07-06T07:16:23;18.10;86.70
7708;DHT22;3896;48.758;8.888;2022-07-06T07:18:51;18.20;86.80
7708;DHT22;3896;48.758;8.888;2022-07-06T07:21:17;18.30;86.30
7708;DHT22;3896;48.758;8.888;2022-07-06T07:23:42;18.30;86.40
7708;DHT22;3896;48.758;8.888;2022-07-06T07:26:08;18.40;86.40
7708;DHT22;3896;48.758;8.888;2022-07-06T07:28:34;18.50;85.90
7708;DHT22;3896;48.758;8.888;2022-07-06T07:30:59;18.60;85.70
7708;DHT22;3896;48.758;8.888;2022-07-06T07:33:25;18.60;84.40
7708;DHT22;3896;48.758;8.888;2022-07-06T07:35:50;18.70;83.30
7708;DHT22;3896;48.758;8.888;2022-07-06T07:38:16;18.80;82.70
7708;DHT22;3896;48.758;8.888;2022-07-06T07:40:42;18.90;82.00
7708;DHT22;3896;48.758;8.888;2022-07-06T07:43:07;18.90;80.70
7708;DHT22;3896;48.758;8.888;2022-07-06T07:45:33;19.00;79.80
7708;DHT22;3896;48.758;8.888;2022-07-06T07:47:59;19.10;79.60
7708;DHT22;3896;48.758;8.888;2022-07-06T07:50:25;19.20;79.00
7708;DHT22;3896;48.758;8.888;2022-07-06T07:52:52;19.20;78.50
7708;DHT22;3896;48.758;8.888;2022-07-06T07:55:18;19.30;78.30
7708;DHT22;3896;48.758;8.888;2022-07-06T07:57:43;19.40;78.90
7708;DHT22;3896;48.758;8.888;2022-07-06T08:00:09;19.50;79.10
7708;DHT22;3896;48.758;8.888;2022-07-06T08:02:35;19.60;78.30
7708;DHT22;3896;48.758;8.888;2022-07-06T08:05:02;19.70;77.60
7708;DHT22;3896;48.758;8.888;2022-07-06T08:07:28;19.80;77.90
7708;DHT22;3896;48.758;8.888;2022-07-06T08:09:53;19.90;76.20
7708;DHT22;3896;48.758;8.888;2022-07-06T08:12:19;20.00;76.00
7708;DHT22;3896;48.758;8.888;2022-07-06T08:14:44;20.10;75.50
7708;DHT22;3896;48.758;8.888;2022-07-06T08:17:10;20.20;74.90
7708;DHT22;3896;48.758;8.888;2022-07-06T08:19:36;20.20;74.60
7708;DHT22;3896;48.758;8.888;2022-07-06T08:22:01;20.40;74.20
7708;DHT22;3896;48.758;8.888;2022-07-06T08:24:33;20.50;73.20
7708;DHT22;3896;48.758;8.888;2022-07-06T08:26:59;20.50;70.90
7708;DHT22;3896;48.758;8.888;2022-07-06T08:29:25;20.60;70.90
7708;DHT22;3896;48.758;8.888;2022-07-06T08:31:51;20.70;71.00
7708;DHT22;3896;48.758;8.888;2022-07-06T08:34:16;20.80;71.70
7708;DHT22;3896;48.758;8.888;2022-07-06T08:36:42;20.90;71.20
7708;DHT22;3896;48.758;8.888;2022-07-06T08:39:08;21.00;70.30
7708;DHT22;3896;48.758;8.888;2022-07-06T08:41:34;21.10;70.00
7708;DHT22;3896;48.758;8.888;2022-07-06T08:44:02;21.30;69.40
7708;DHT22;3896;48.758;8.888;2022-07-06T08:46:28;21.40;68.90
7708;DHT22;3896;48.758;8.888;2022-07-06T08:48:57;21.60;67.90
7708;DHT22;3896;48.758;8.888;2022-07-06T08:51:24;21.70;67.40
7708;DHT22;3896;48.758;8.888;2022-07-06T08:53:50;21.80;66.60
7708;DHT22;3896;48.758;8.888;2022-07-06T08:56:18;21.90;66.50
7708;DHT22;3896;48.758;8.888;2022-07-06T08:58:44;22.00;66.00
7708;DHT22;3896;48.758;8.888;2022-07-06T09:01:10;22.20;65.60
7708;DHT22;3896;48.758;8.888;2022-07-06T09:03:36;22.30;65.70
7708;DHT22;3896;48.758;8.888;2022-07-06T09:06:02;22.40;64.90
7708;DHT22;3896;48.758;8.888;2022-07-06T09:08:30;22.50;64.50
7708;DHT22;3896;48.758;8.888;2022-07-06T09:10:56;22.60;63.60
7708;DHT22;3896;48.758;8.888;2022-07-06T09:13:22;22.80;63.10
7708;DHT22;3896;48.758;8.888;2022-07-06T09:15:47;22.90;63.30
7708;DHT22;3896;48.758;8.888;2022-07-06T09:18:14;23.00;63.30
7708;DHT22;3896;48.758;8.888;2022-07-06T09:20:41;23.10;63.40
7708;DHT22;3896;48.758;8.888;2022-07-06T09:23:07;23.20;62.80
7708;DHT22;3896;48.758;8.888;2022-07-06T09:25:34;23.30;61.50
7708;DHT22;3896;48.758;8.888;2022-07-06T09:28:00;23.40;60.70
7708;DHT22;3896;48.758;8.888;2022-07-06T09:30:28;23.60;60.50
7708;DHT22;3896;48.758;8.888;2022-07-06T09:32:55;23.70;60.00
7708;DHT22;3896;48.758;8.888;2022-07-06T09:35:32;23.80;59.80
7708;DHT22;3896;48.758;8.888;2022-07-06T09:38:06;23.90;60.50
7708;DHT22;3896;48.758;8.888;2022-07-06T09:40:45;24.00;60.10
7708;DHT22;3896;48.758;8.888;2022-07-06T09:43:14;24.10;60.00
7708;DHT22;3896;48.758;8.888;2022-07-06T09:45:43;24.20;59.40
7708;DHT22;3896;48.758;8.888;2022-07-06T09:48:11;24.30;59.40
7708;DHT22;3896;48.758;8.888;2022-07-06T09:53:17;24.50;59.00
7708;DHT22;3896;48.758;8.888;2022-07-06T09:55:53;24.60;58.90
7708;DHT22;3896;48.758;8.888;2022-07-06T09:58:20;24.70;58.20
7708;DHT22;3896;48.758;8.888;2022-07-06T10:00:47;24.80;58.10
7708;DHT22;3896;48.758;8.888;2022-07-06T10:03:14;24.90;58.00
7708;DHT22;3896;48.758;8.888;2022-07-06T10:05:43;25.00;57.40
7708;DHT22;3896;48.758;8.888;2022-07-06T10:08:11;25.00;57.20
7708;DHT22;3896;48.758;8.888;2022-07-06T10:10:39;25.20;56.30
7708;DHT22;3896;48.758;8.888;2022-07-06T10:13:05;25.30;56.50
7708;DHT22;3896;48.758;8.888;2022-07-06T10:15:32;25.40;57.00
7708;DHT22;3896;48.758;8.888;2022-07-06T10:18:00;25.40;55.00
7708;DHT22;3896;48.758;8.888;2022-07-06T10:20:31;25.50;55.60
7708;DHT22;3896;48.758;8.888;2022-07-06T10:22:59;25.60;55.40
7708;DHT22;3896;48.758;8.888;2022-07-06T10:25:26;25.70;54.70
7708;DHT22;3896;48.758;8.888;2022-07-06T10:27:52;25.80;54.40
7708;DHT22;3896;48.758;8.888;2022-07-06T10:30:18;25.90;54.30
7708;DHT22;3896;48.758;8.888;2022-07-06T10:32:50;26.00;53.70
7708;DHT22;3896;48.758;8.888;2022-07-06T10:35:20;26.10;53.80
7708;DHT22;3896;48.758;8.888;2022-07-06T10:38:02;26.10;53.70
7708;DHT22;3896;48.758;8.888;2022-07-06T10:40:39;26.30;53.40
7708;DHT22;3896;48.758;8.888;2022-07-06T10:43:30;26.20;53.10
7708;DHT22;3896;48.758;8.888;2022-07-06T10:45:56;26.30;53.00
7708;DHT22;3896;48.758;8.888;2022-07-06T10:48:21;26.30;53.00
7708;DHT22;3896;48.758;8.888;2022-07-06T10:50:50;26.30;52.50
7708;DHT22;3896;48.758;8.888;2022-07-06T10:53:27;26.30;52.30
7708;DHT22;3896;48.758;8.888;2022-07-06T10:55:55;26.30;52.90
7708;DHT22;3896;48.758;8.888;2022-07-06T10:58:50;26.30;52.70
7708;DHT22;3896;48.758;8.888;2022-07-06T11:01:17;26.20;52.70
7708;DHT22;3896;48.758;8.888;2022-07-06T11:03:49;26.40;52.70
7708;DHT22;3896;48.758;8.888;2022-07-06T11:06:33;26.50;52.80
7708;DHT22;3896;48.758;8.888;2022-07-06T11:09:07;26.50;52.20
7708;DHT22;3896;48.758;8.888;2022-07-06T11:16:40;26.80;52.50
7708;DHT22;3896;48.758;8.888;2022-07-06T11:19:26;26.90;52.40
7708;DHT22;3896;48.758;8.888;2022-07-06T11:21:54;27.00;51.80
7708;DHT22;3896;48.758;8.888;2022-07-06T11:24:27;27.10;51.80
7708;DHT22;3896;48.758;8.888;2022-07-06T11:26:55;27.20;51.90
7708;DHT22;3896;48.758;8.888;2022-07-06T11:29:23;27.20;51.20
7708;DHT22;3896;48.758;8.888;2022-07-06T11:31:52;27.20;50.10
7708;DHT22;3896;48.758;8.888;2022-07-06T11:34:29;27.20;50.70
7708;DHT22;3896;48.758;8.888;2022-07-06T11:36:59;27.20;50.80
7708;DHT22;3896;48.758;8.888;2022-07-06T11:39:33;27.30;50.70
7708;DHT22;3896;48.758;8.888;2022-07-06T11:42:00;27.30;50.20
7708;DHT22;3896;48.758;8.888;2022-07-06T11:44:26;27.40;49.90
7708;DHT22;3896;48.758;8.888;2022-07-06T11:46:52;27.40;49.70
7708;DHT22;3896;48.758;8.888;2022-07-06T11:49:20;27.40;49.60
7708;DHT22;3896;48.758;8.888;2022-07-06T11:51:46;27.40;49.60
7708;DHT22;3896;48.758;8.888;2022-07-06T11:56:55;27.50;50.00
7708;DHT22;3896;48.758;8.888;2022-07-06T11:59:25;27.60;49.20
7708;DHT22;3896;48.758;8.888;2022-07-06T12:02:17;27.70;49.60
7708;DHT22;3896;48.758;8.888;2022-07-06T12:04:45;27.70;49.50
7708;DHT22;3896;48.758;8.888;2022-07-06T12:07:13;27.70;48.90
7708;DHT22;3896;48.758;8.888;2022-07-06T12:09:41;27.80;48.80
7708;DHT22;3896;48.758;8.888;2022-07-06T12:12:08;27.90;48.40
7708;DHT22;3896;48.758;8.888;2022-07-06T12:14:36;28.00;48.60
7708;DHT22;3896;48.758;8.888;2022-07-06T12:17:06;28.10;48.20
7708;DHT22;3896;48.758;8.888;2022-07-06T12:19:32;28.30;48.00
7708;DHT22;3896;48.758;8.888;2022-07-06T12:21:58;28.50;47.50
7708;DHT22;3896;48.758;8.888;2022-07-06T12:24:27;28.60;46.40
7708;DHT22;3896;48.758;8.888;2022-07-06T12:29:37;28.70;46.20
7708;DHT22;3896;48.758;8.888;2022-07-06T12:32:03;28.70;46.50
7708;DHT22;3896;48.758;8.888;2022-07-06T12:34:30;28.80;46.10
7708;DHT22;3896;48.758;8.888;2022-07-06T12:36:59;28.70;45.90
7708;DHT22;3896;48.758;8.888;2022-07-06T12:39:27;28.70;45.90
7708;DHT22;3896;48.758;8.888;2022-07-06T12:42:01;28.60;46.30
7708;DHT22;3896;48.758;8.888;2022-07-06T12:44:28;28.60;45.70
7708;DHT22;3896;48.758;8.888;2022-07-06T12:47:17;28.60;46.00
7708;DHT22;3896;48.758;8.888;2022-07-06T12:49:43;28.50;45.60
7708;DHT22;3896;48.758;8.888;2022-07-06T12:52:13;28.60;45.70
7708;DHT22;3896;48.758;8.888;2022-07-06T12:54:47;28.50;45.90
7708;DHT22;3896;48.758;8.888;2022-07-06T12:57:17;28.50;45.50
7708;DHT22;3896;48.758;8.888;2022-07-06T12:59:56;28.40;46.10
7708;DHT22;3896;48.758;8.888;2022-07-06T13:05:05;28.40;46.20
7708;DHT22;3896;48.758;8.888;2022-07-06T13:07:32;28.40;46.70
7708;DHT22;3896;48.758;8.888;2022-07-06T13:10:02;28.40;46.20
7708;DHT22;3896;48.758;8.888;2022-07-06T13:12:28;28.60;45.50
7708;DHT22;3896;48.758;8.888;2022-07-06T13:14:53;28.60;45.40
7708;DHT22;3896;48.758;8.888;2022-07-06T13:17:19;28.70;45.50
7708;DHT22;3896;48.758;8.888;2022-07-06T13:19:45;28.80;45.50
7708;DHT22;3896;48.758;8.888;2022-07-06T13:22:10;28.90;45.00
7708;DHT22;3896;48.758;8.888;2022-07-06T13:24:36;29.00;45.20
7708;DHT22;3896;48.758;8.888;2022-07-06T13:27:03;29.10;45.10
7708;DHT22;3896;48.758;8.888;2022-07-06T13:29:28;29.30;44.90
7708;DHT22;3896;48.758;8.888;2022-07-06T13:31:54;29.40;44.60
7708;DHT22;3896;48.758;8.888;2022-07-06T13:34:20;29.60;43.90
7708;DHT22;3896;48.758;8.888;2022-07-06T13:36:45;29.70;43.10
7708;DHT22;3896;48.758;8.888;2022-07-06T13:39:11;29.80;42.90
7708;DHT22;3896;48.758;8.888;2022-07-06T13:41:37;29.90;43.20
7708;DHT22;3896;48.758;8.888;2022-07-06T13:44:03;29.80;43.50
7708;DHT22;3896;48.758;8.888;2022-07-06T13:46:29;29.80;43.00
7708;DHT22;3896;48.758;8.888;2022-07-06T13:48:56;29.80;42.60
7708;DHT22;3896;48.758;8.888;2022-07-06T13:51:23;29.80;42.10
7708;DHT22;3896;48.758;8.888;2022-07-06T13:53:49;29.80;42.60
7708;DHT22;3896;48.758;8.888;2022-07-06T13:56:14;29.70;42.80
7708;DHT22;3896;48.758;8.888;2022-07-06T13:58:41;29.70;43.00
7708;DHT22;3896;48.758;8.888;2022-07-06T14:01:06;29.60;43.20
7708;DHT22;3896;48.758;8.888;2022-07-06T14:03:32;29.50;42.90
7708;DHT22;3896;48.758;8.888;2022-07-06T14:05:59;29.50;42.80
7708;DHT22;3896;48.758;8.888;2022-07-06T14:08:26;29.40;43.00
7708;DHT22;3896;48.758;8.888;2022-07-06T14:10:52;29.30;42.90
7708;DHT22;3896;48.758;8.888;2022-07-06T14:13:18;29.30;43.10
7708;DHT22;3896;48.758;8.888;2022-07-06T14:15:44;29.20;43.10
7708;DHT22;3896;48.758;8.888;2022-07-06T14:18:10;29.10;43.30
7708;DHT22;3896;48.758;8.888;2022-07-06T14:20:36;29.10;44.00
7708;DHT22;3896;48.758;8.888;2022-07-06T14:23:01;29.00;44.20
7708;DHT22;3896;48.758;8.888;2022-07-06T14:25:27;29.10;44.20
7708;DHT22;3896;48.758;8.888;2022-07-06T14:27:53;29.10;43.40
7708;DHT22;3896;48.758;8.888;2022-07-06T14:30:18;29.20;43.70
7708;DHT22;3896;48.758;8.888;2022-07-06T14:32:44;29.20;43.70
7708;DHT22;3896;48.758;8.888;2022-07-06T14:35:10;29.30;43.60
7708;DHT22;3896;48.758;8.888;2022-07-06T14:37:36;29.30;43.40
7708;DHT22;3896;48.758;8.888;2022-07-06T14:40:02;29.40;43.30
7708;DHT22;3896;48.758;8.888;2022-07-06T14:42:28;29.60;42.40
7708;DHT22;3896;48.758;8.888;2022-07-06T14:44:53;29.70;42.20
7708;DHT22;3896;48.758;8.888;2022-07-06T14:47:19;29.70;42.50
7708;DHT22;3896;48.758;8.888;2022-07-06T14:49:45;29.80;42.30
7708;DHT22;3896;48.758;8.888;2022-07-06T14:52:10;29.90;42.80
7708;DHT22;3896;48.758;8.888;2022-07-06T14:54:36;30.10;43.00
7708;DHT22;3896;48.758;8.888;2022-07-06T14:57:02;30.20;42.20
7708;DHT22;3896;48.758;8.888;2022-07-06T14:59:32;30.30;42.30
7708;DHT22;3896;48.758;8.888;2022-07-06T15:01:58;30.50;41.70
7708;DHT22;3896;48.758;8.888;2022-07-06T15:04:23;30.60;42.00
7708;DHT22;3896;48.758;8.888;2022-07-06T15:06:49;30.70;41.00
7708;DHT22;3896;48.758;8.888;2022-07-06T15:09:16;30.90;40.70
7708;DHT22;3896;48.758;8.888;2022-07-06T15:11:41;31.00;40.40
7708;DHT22;3896;48.758;8.888;2022-07-06T15:14:07;31.10;39.90
7708;DHT22;3896;48.758;8.888;2022-07-06T15:16:33;31.10;39.30
7708;DHT22;3896;48.758;8.888;2022-07-06T15:18:59;31.20;39.40
7708;DHT22;3896;48.758;8.888;2022-07-06T15:21:24;31.20;39.30
7708;DHT22;3896;48.758;8.888;2022-07-06T15:23:50;31.30;39.30
7708;DHT22;3896;48.758;8.888;2022-07-06T15:26:16;31.30;39.10
7708;DHT22;3896;48.758;8.888;2022-07-06T15:28:41;31.30;38.40
7708;DHT22;3896;48.758;8.888;2022-07-06T15:31:07;31.40;38.50
7708;DHT22;3896;48.758;8.888;2022-07-06T15:33:33;31.40;38.60
7708;DHT22;3896;48.758;8.888;2022-07-06T15:35:58;31.30;38.10
7708;DHT22;3896;48.758;8.888;2022-07-06T15:38:24;31.20;37.90
7708;DHT22;3896;48.758;8.888;2022-07-06T15:40:50;31.20;37.90
7708;DHT22;3896;48.758;8.888;2022-07-06T15:43:21;31.10;37.60
7708;DHT22;3896;48.758;8.888;2022-07-06T15:45:47;30.90;37.30
7708;DHT22;3896;48.758;8.888;2022-07-06T15:48:13;30.80;37.80
7708;DHT22;3896;48.758;8.888;2022-07-06T15:50:39;30.70;38.00
7708;DHT22;3896;48.758;8.888;2022-07-06T15:53:04;30.60;37.90
7708;DHT22;3896;48.758;8.888;2022-07-06T15:55:30;30.60;37.90
7708;DHT22;3896;48.758;8.888;2022-07-06T15:57:56;30.50;37.80
7708;DHT22;3896;48.758;8.888;2022-07-06T16:00:22;30.40;37.30
7708;DHT22;3896;48.758;8.888;2022-07-06T16:02:47;30.30;37.70
7708;DHT22;3896;48.758;8.888;2022-07-06T16:05:14;30.20;37.70
7708;DHT22;3896;48.758;8.888;2022-07-06T16:07:39;30.10;37.60
7708;DHT22;3896;48.758;8.888;2022-07-06T16:10:05;29.90;37.40
7708;DHT22;3896;48.758;8.888;2022-07-06T16:12:31;29.80;36.70
7708;DHT22;3896;48.758;8.888;2022-07-06T16:14:57;29.80;37.60
7708;DHT22;3896;48.758;8.888;2022-07-06T16:17:22;29.70;37.40
7708;DHT22;3896;48.758;8.888;2022-07-06T16:19:48;29.60;37.40
7708;DHT22;3896;48.758;8.888;2022-07-06T16:22:13;29.50;36.90